Terminal Aerodrome Forecast
Issued by NWS Boston, MA

Home | Current Version | Previous Version | Text Only | Print | Product List | Glossary On
Versions: 1 2 3 4 5 6 7 8 9 10 11 12 13 14 15 16 17 18 19 20 21 22 23 24 25
988
FTUS41 KBOX 250537
TAFORH
TAF
KORH 250537Z 2506/2606 VRB03KT P6SM FEW200
     FM251600 22007KT P6SM SCT130
     FM252000 22008KT P6SM VCTS BKN080CB
     FM260100 25006KT P6SM BKN100
     FM260400 25006KT P6SM SCT250=

USA.gov is the U.S. government's official web portal to all federal, state and local government web resources and services.